Time;durP1;ratioP1;P1;durP2;ratioP2;P2;SDS_P1;SDS_P2;PMS_P1;PMS_P2;Temp;Humidity;BMP_temperature;BMP_pressure;BME280_temperature;BME280_humidity;BME280_pressure;Samples;Min_cycle;Max_cycle;Signal;HPM_P1;HPM_P2
2021/08/12 00:00:50;;;;;;;2.12;1.91;;;;;;;21.57;70.94;100766.84;;;;-52
2021/08/12 00:03:50;;;;;;;2.15;1.90;;;;;;;21.56;71.01;100766.85;;;;-52
2021/08/12 00:06:50;;;;;;;2.27;2.02;;;;;;;21.56;70.94;100765.61;;;;-52
2021/08/12 00:09:50;;;;;;;2.10;1.90;;;;;;;21.55;70.99;100768.22;;;;-52
2021/08/12 00:12:50;;;;;;;1.91;1.79;;;;;;;21.55;70.96;100771.00;;;;-52
2021/08/12 00:15:50;;;;;;;2.13;1.92;;;;;;;21.55;70.90;100774.59;;;;-52
2021/08/12 00:18:55;;;;;;;2.18;1.88;;;;;;;21.55;70.89;100778.98;;;;-52
2021/08/12 00:21:50;;;;;;;2.14;1.89;;;;;;;21.55;70.98;100776.14;;;;-52
2021/08/12 00:24:50;;;;;;;2.18;1.99;;;;;;;21.55;71.00;100775.81;;;;-52
2021/08/12 00:27:50;;;;;;;4.18;2.04;;;;;;;21.54;70.93;100771.33;;;;-52
2021/08/12 00:30:50;;;;;;;2.13;1.89;;;;;;;21.54;70.95;100773.09;;;;-52
2021/08/12 00:33:50;;;;;;;2.21;1.99;;;;;;;21.53;70.97;100766.67;;;;-52
2021/08/12 00:36:50;;;;;;;2.41;1.89;;;;;;;21.53;70.91;100766.34;;;;-52
2021/08/12 00:39:50;;;;;;;2.35;1.94;;;;;;;21.53;70.92;100760.64;;;;-59
2021/08/12 00:42:50;;;;;;;2.69;1.99;;;;;;;21.53;70.92;100760.06;;;;-58
2021/08/12 00:45:50;;;;;;;2.25;1.94;;;;;;;21.53;71.00;100756.08;;;;-58
2021/08/12 00:48:50;;;;;;;2.07;1.87;;;;;;;21.51;71.00;100755.00;;;;-59
2021/08/12 00:51:50;;;;;;;2.60;1.92;;;;;;;21.52;70.99;100756.55;;;;-59
2021/08/12 00:54:50;;;;;;;2.00;1.75;;;;;;;21.51;71.00;100758.09;;;;-58
2021/08/12 00:57:50;;;;;;;1.96;1.85;;;;;;;21.51;71.00;100761.44;;;;-59
2021/08/12 01:00:50;;;;;;;2.13;1.93;;;;;;;21.51;71.01;100760.38;;;;-52
2021/08/12 01:03:50;;;;;;;2.14;1.94;;;;;;;21.51;71.00;100759.48;;;;-53
2021/08/12 01:06:50;;;;;;;2.06;1.80;;;;;;;21.51;71.00;100761.61;;;;-53
2021/08/12 01:09:50;;;;;;;2.17;1.85;;;;;;;21.51;71.01;100767.32;;;;-53
2021/08/12 01:12:50;;;;;;;2.01;1.81;;;;;;;21.51;70.98;100765.03;;;;-53
2021/08/12 01:15:50;;;;;;;2.07;1.80;;;;;;;21.49;70.99;100764.12;;;;-52
2021/08/12 01:18:50;;;;;;;2.28;1.95;;;;;;;21.50;70.97;100764.72;;;;-52
2021/08/12 01:21:50;;;;;;;1.95;1.77;;;;;;;21.50;71.04;100762.76;;;;-52
2021/08/12 01:24:50;;;;;;;2.12;1.92;;;;;;;21.49;71.01;100764.20;;;;-52
2021/08/12 01:27:50;;;;;;;1.98;1.80;;;;;;;21.49;70.98;100767.88;;;;-50
2021/08/12 01:30:50;;;;;;;1.82;1.61;;;;;;;21.48;71.04;100766.83;;;;-50
2021/08/12 01:33:50;;;;;;;1.99;1.79;;;;;;;21.48;71.01;100759.16;;;;-50
2021/08/12 01:36:54;;;;;;;1.89;1.77;;;;;;;21.48;71.00;100760.63;;;;-52
2021/08/12 01:39:50;;;;;;;2.21;1.91;;;;;;;21.48;71.00;100760.52;;;;-50
2021/08/12 01:42:50;;;;;;;1.91;1.79;;;;;;;21.48;70.94;100765.85;;;;-50
2021/08/12 01:45:50;;;;;;;2.22;1.93;;;;;;;21.48;70.96;100765.25;;;;-52
2021/08/12 01:48:50;;;;;;;2.23;1.90;;;;;;;21.47;70.98;100760.94;;;;-52
2021/08/12 01:51:50;;;;;;;2.73;1.92;;;;;;;21.47;70.99;100766.25;;;;-52
2021/08/12 01:54:50;;;;;;;2.15;1.89;;;;;;;21.47;70.99;100769.18;;;;-52
2021/08/12 01:57:50;;;;;;;2.03;1.80;;;;;;;21.47;71.08;100771.30;;;;-50
2021/08/12 02:00:51;;;;;;;2.08;1.88;;;;;;;21.46;71.06;100769.52;;;;-52
2021/08/12 02:03:50;;;;;;;1.85;1.75;;;;;;;21.46;71.05;100767.64;;;;-53
2021/08/12 02:06:50;;;;;;;2.20;2.00;;;;;;;21.46;71.02;100765.25;;;;-52
2021/08/12 02:09:50;;;;;;;3.23;1.90;;;;;;;21.46;70.99;100762.75;;;;-52
2021/08/12 02:12:50;;;;;;;1.98;1.81;;;;;;;21.46;71.00;100762.31;;;;-50
2021/08/12 02:15:50;;;;;;;2.33;1.91;;;;;;;21.45;71.00;100755.14;;;;-50
2021/08/12 02:18:50;;;;;;;2.79;2.01;;;;;;;21.45;71.00;100755.55;;;;-52
2021/08/12 02:21:50;;;;;;;2.08;1.89;;;;;;;21.45;70.97;100747.80;;;;-52
2021/08/12 02:24:50;;;;;;;1.97;1.81;;;;;;;21.45;70.99;100744.95;;;;-52
2021/08/12 02:27:50;;;;;;;1.99;1.83;;;;;;;21.44;71.04;100743.25;;;;-50
2021/08/12 02:30:50;;;;;;;2.20;2.00;;;;;;;21.44;71.04;100743.33;;;;-50
2021/08/12 02:33:51;;;;;;;2.11;1.91;;;;;;;21.44;71.07;100743.98;;;;-50
2021/08/12 02:36:50;;;;;;;2.08;1.93;;;;;;;21.44;71.00;100745.78;;;;-59
2021/08/12 02:39:50;;;;;;;1.99;1.80;;;;;;;21.44;71.01;100746.92;;;;-58
2021/08/12 02:42:50;;;;;;;2.70;1.91;;;;;;;21.43;71.05;100749.02;;;;-58
2021/08/12 02:45:50;;;;;;;2.17;1.91;;;;;;;21.43;71.01;100748.94;;;;-59
2021/08/12 02:48:50;;;;;;;2.10;1.90;;;;;;;21.44;71.07;100752.72;;;;-59
2021/08/12 02:51:50;;;;;;;1.83;1.73;;;;;;;21.43;70.98;100752.69;;;;-58
2021/08/12 02:54:50;;;;;;;2.15;1.95;;;;;;;21.43;71.01;100750.33;;;;-58
2021/08/12 02:57:50;;;;;;;2.21;1.90;;;;;;;21.42;71.02;100743.57;;;;-59
2021/08/12 03:00:51;;;;;;;2.19;1.98;;;;;;;21.42;70.96;100742.16;;;;-52
2021/08/12 03:03:50;;;;;;;2.21;2.01;;;;;;;21.42;71.04;100742.24;;;;-52
2021/08/12 03:06:50;;;;;;;1.97;1.84;;;;;;;21.42;71.03;100741.42;;;;-58
2021/08/12 03:09:50;;;;;;;2.03;1.81;;;;;;;21.42;71.08;100740.45;;;;-58
2021/08/12 03:12:50;;;;;;;1.98;1.77;;;;;;;21.42;71.01;100741.10;;;;-58
2021/08/12 03:15:50;;;;;;;2.07;1.87;;;;;;;21.41;71.01;100740.84;;;;-58
2021/08/12 03:18:50;;;;;;;2.31;1.91;;;;;;;21.41;71.05;100740.42;;;;-58
2021/08/12 03:21:50;;;;;;;2.13;1.93;;;;;;;21.41;71.02;100740.67;;;;-58
2021/08/12 03:24:50;;;;;;;2.31;1.90;;;;;;;21.41;71.04;100742.63;;;;-58
2021/08/12 03:27:50;;;;;;;2.16;1.89;;;;;;;21.41;71.00;100743.28;;;;-58
2021/08/12 03:30:50;;;;;;;2.12;1.92;;;;;;;21.40;71.01;100746.05;;;;-50
2021/08/12 03:33:50;;;;;;;2.39;1.76;;;;;;;21.41;71.04;100751.27;;;;-50
2021/08/12 03:36:50;;;;;;;2.20;2.00;;;;;;;21.40;71.00;100750.88;;;;-50
2021/08/12 03:39:50;;;;;;;2.01;1.89;;;;;;;21.40;71.03;100749.08;;;;-58
2021/08/12 03:42:50;;;;;;;2.05;1.90;;;;;;;21.40;71.03;100751.69;;;;-58
2021/08/12 03:45:50;;;;;;;2.09;1.89;;;;;;;21.40;71.01;100760.25;;;;-58
2021/08/12 03:48:50;;;;;;;2.24;2.03;;;;;;;21.39;70.97;100760.23;;;;-58
2021/08/12 03:51:50;;;;;;;2.25;1.96;;;;;;;21.40;70.98;100758.95;;;;-52
2021/08/12 03:54:50;;;;;;;3.13;2.04;;;;;;;21.39;71.05;100760.55;;;;-52
2021/08/12 03:57:50;;;;;;;1.85;1.74;;;;;;;21.39;71.10;100756.48;;;;-52
2021/08/12 04:00:50;;;;;;;2.17;1.99;;;;;;;21.38;71.02;100752.33;;;;-53
2021/08/12 04:03:50;;;;;;;2.09;1.90;;;;;;;21.39;71.04;100754.60;;;;-52
2021/08/12 04:06:50;;;;;;;2.05;1.87;;;;;;;21.38;71.00;100756.33;;;;-52
2021/08/12 04:09:50;;;;;;;1.93;1.83;;;;;;;21.39;70.92;100757.62;;;;-52
2021/08/12 04:12:50;;;;;;;1.99;1.89;;;;;;;21.38;71.02;100757.14;;;;-52
2021/08/12 04:15:50;;;;;;;2.27;1.97;;;;;;;21.38;70.96;100755.11;;;;-52
2021/08/12 04:18:50;;;;;;;1.99;1.83;;;;;;;21.38;71.00;100753.63;;;;-53
2021/08/12 04:21:50;;;;;;;1.84;1.74;;;;;;;21.38;70.96;100754.21;;;;-59
2021/08/12 04:24:50;;;;;;;2.09;1.81;;;;;;;21.37;70.96;100757.88;;;;-59
2021/08/12 04:27:50;;;;;;;2.05;1.90;;;;;;;21.38;70.96;100759.67;;;;-59
2021/08/12 04:30:50;;;;;;;2.13;1.93;;;;;;;21.38;70.97;100760.08;;;;-58
2021/08/12 04:33:50;;;;;;;2.39;2.01;;;;;;;21.37;70.97;100765.27;;;;-59
2021/08/12 04:36:50;;;;;;;2.21;2.01;;;;;;;21.36;70.97;100767.48;;;;-52
2021/08/12 04:39:50;;;;;;;2.08;1.88;;;;;;;21.37;70.95;100770.73;;;;-53
2021/08/12 04:42:50;;;;;;;2.09;1.90;;;;;;;21.37;71.04;100775.06;;;;-52
2021/08/12 04:45:50;;;;;;;2.02;1.90;;;;;;;21.37;70.97;100774.41;;;;-52
2021/08/12 04:48:50;;;;;;;1.93;1.81;;;;;;;21.36;70.95;100779.23;;;;-53
2021/08/12 04:51:50;;;;;;;2.27;1.79;;;;;;;21.36;70.98;100780.13;;;;-53
2021/08/12 04:54:50;;;;;;;1.99;1.81;;;;;;;21.36;70.99;100778.82;;;;-53
2021/08/12 04:57:50;;;;;;;2.05;1.92;;;;;;;21.36;71.04;100782.48;;;;-58
2021/08/12 05:00:51;;;;;;;2.29;2.09;;;;;;;21.36;70.99;100785.52;;;;-58
2021/08/12 05:03:50;;;;;;;1.93;1.83;;;;;;;21.36;70.94;100792.36;;;;-59
2021/08/12 05:06:50;;;;;;;1.95;1.80;;;;;;;21.36;71.02;100796.19;;;;-57
2021/08/12 05:09:50;;;;;;;1.90;1.80;;;;;;;21.35;70.99;100797.01;;;;-59
2021/08/12 05:12:50;;;;;;;2.20;2.00;;;;;;;21.36;70.98;100795.62;;;;-59
2021/08/12 05:15:50;;;;;;;2.11;1.94;;;;;;;21.35;70.98;100795.38;;;;-58
2021/08/12 05:18:50;;;;;;;1.89;1.79;;;;;;;21.36;70.96;100790.56;;;;-58
2021/08/12 05:21:50;;;;;;;2.10;1.90;;;;;;;21.35;70.99;100792.91;;;;-59
2021/08/12 05:24:50;;;;;;;1.98;1.88;;;;;;;21.34;71.03;100785.42;;;;-58
2021/08/12 05:27:50;;;;;;;2.09;1.87;;;;;;;21.34;70.98;100782.07;;;;-59
2021/08/12 05:30:50;;;;;;;1.99;1.80;;;;;;;21.34;71.02;100785.25;;;;-59
2021/08/12 05:33:50;;;;;;;2.08;1.90;;;;;;;21.34;70.92;100785.98;;;;-58
2021/08/12 05:36:50;;;;;;;2.45;2.00;;;;;;;21.34;70.92;100784.77;;;;-57
2021/08/12 05:39:50;;;;;;;2.06;1.91;;;;;;;21.34;70.98;100785.58;;;;-58
2021/08/12 05:42:50;;;;;;;2.05;1.93;;;;;;;21.34;70.98;100780.93;;;;-58
2021/08/12 05:45:50;;;;;;;1.80;1.70;;;;;;;21.34;71.01;100775.87;;;;-58
2021/08/12 05:48:50;;;;;;;1.93;1.83;;;;;;;21.34;71.02;100772.05;;;;-59
2021/08/12 05:51:50;;;;;;;2.03;1.83;;;;;;;21.34;71.02;100774.58;;;;-58
2021/08/12 05:54:50;;;;;;;1.91;1.80;;;;;;;21.33;70.96;100773.84;;;;-59
2021/08/12 05:57:50;;;;;;;2.01;1.87;;;;;;;21.33;70.96;100774.50;;;;-58
2021/08/12 06:00:50;;;;;;;2.43;2.18;;;;;;;21.34;71.11;100774.89;;;;-59
2021/08/12 06:03:50;;;;;;;4.87;3.97;;;;;;;21.27;71.48;100771.84;;;;-59
2021/08/12 06:06:50;;;;;;;5.76;4.37;;;;;;;21.25;71.54;100777.78;;;;-58
2021/08/12 06:09:50;;;;;;;8.43;4.41;;;;;;;21.15;71.86;100776.22;;;;-59
2021/08/12 06:12:50;;;;;;;10.11;4.83;;;;;;;21.09;72.75;100774.06;;;;-59
2021/08/12 06:15:50;;;;;;;13.11;5.11;;;;;;;21.08;72.39;100774.70;;;;-59
2021/08/12 06:18:50;;;;;;;7.37;4.79;;;;;;;21.05;72.69;100781.30;;;;-58
2021/08/12 06:21:50;;;;;;;8.61;4.55;;;;;;;21.04;72.91;100786.73;;;;-59
2021/08/12 06:24:50;;;;;;;8.07;4.52;;;;;;;21.04;73.19;100789.99;;;;-58
2021/08/12 06:27:50;;;;;;;10.11;5.01;;;;;;;21.09;73.15;100791.42;;;;-59
2021/08/12 06:30:50;;;;;;;8.70;4.39;;;;;;;21.14;72.80;100791.59;;;;-57
2021/08/12 06:33:50;;;;;;;7.49;4.50;;;;;;;21.18;72.52;100794.88;;;;-58
2021/08/12 06:36:50;;;;;;;7.77;4.51;;;;;;;21.20;72.49;100791.62;;;;-59
2021/08/12 06:39:50;;;;;;;8.55;4.45;;;;;;;21.21;72.36;100792.13;;;;-59
2021/08/12 06:42:50;;;;;;;7.63;4.39;;;;;;;21.24;72.34;100796.05;;;;-59
2021/08/12 06:45:50;;;;;;;6.76;4.08;;;;;;;21.24;72.17;100797.84;;;;-58
2021/08/12 06:48:50;;;;;;;7.91;4.44;;;;;;;21.25;72.13;100794.84;;;;-58
2021/08/12 06:51:50;;;;;;;7.40;4.08;;;;;;;21.27;72.09;100801.22;;;;-52
2021/08/12 06:54:50;;;;;;;7.23;4.47;;;;;;;21.28;72.00;100798.02;;;;-53
2021/08/12 06:57:50;;;;;;;6.30;4.25;;;;;;;21.29;71.97;100799.34;;;;-52
2021/08/12 07:00:50;;;;;;;7.19;4.43;;;;;;;21.30;71.83;100799.09;;;;-52
2021/08/12 07:03:50;;;;;;;6.22;4.13;;;;;;;21.31;71.79;100800.74;;;;-52
2021/08/12 07:06:50;;;;;;;6.33;4.07;;;;;;;21.31;71.79;100794.55;;;;-52
2021/08/12 07:09:50;;;;;;;7.71;4.33;;;;;;;21.32;71.77;100796.50;;;;-52
2021/08/12 07:12:50;;;;;;;6.09;4.22;;;;;;;21.32;71.70;100795.02;;;;-52
2021/08/12 07:15:50;;;;;;;5.51;3.69;;;;;;;21.33;71.65;100795.34;;;;-53
2021/08/12 07:18:50;;;;;;;6.13;4.11;;;;;;;21.33;71.69;100795.09;;;;-52
2021/08/12 07:21:51;;;;;;;4.47;3.86;;;;;;;21.34;71.66;100794.31;;;;-51
2021/08/12 07:24:50;;;;;;;5.96;3.82;;;;;;;21.34;71.60;100794.22;;;;-52
2021/08/12 07:27:51;;;;;;;5.47;3.77;;;;;;;21.35;71.58;100789.41;;;;-51
2021/08/12 07:30:50;;;;;;;4.91;3.79;;;;;;;21.35;71.59;100796.25;;;;-52
2021/08/12 07:33:50;;;;;;;6.19;3.97;;;;;;;21.35;71.50;100794.56;;;;-52
2021/08/12 07:36:50;;;;;;;5.94;4.01;;;;;;;21.36;71.52;100792.69;;;;-53
2021/08/12 07:39:50;;;;;;;4.49;3.86;;;;;;;21.36;71.49;100797.16;;;;-53
2021/08/12 07:42:50;;;;;;;4.31;3.69;;;;;;;21.37;71.46;100797.41;;;;-52
2021/08/12 07:45:50;;;;;;;4.91;3.67;;;;;;;21.36;71.49;100797.16;;;;-52
2021/08/12 07:48:50;;;;;;;5.05;3.72;;;;;;;21.37;71.49;100801.80;;;;-52
2021/08/12 07:51:50;;;;;;;4.49;3.71;;;;;;;21.37;71.38;100796.34;;;;-53
2021/08/12 07:54:50;;;;;;;5.13;3.99;;;;;;;21.37;71.37;100797.73;;;;-52
2021/08/12 07:57:50;;;;;;;5.39;3.69;;;;;;;21.37;71.46;100798.86;;;;-51
2021/08/12 08:00:50;;;;;;;5.06;3.61;;;;;;;21.37;71.40;100799.95;;;;-58
2021/08/12 08:03:50;;;;;;;3.95;3.54;;;;;;;21.38;71.33;100795.87;;;;-52
2021/08/12 08:06:50;;;;;;;5.69;3.91;;;;;;;21.39;71.35;100791.86;;;;-56
2021/08/12 08:09:50;;;;;;;6.53;3.39;;;;;;;21.39;71.47;100789.52;;;;-51
2021/08/12 08:12:50;;;;;;;4.14;3.41;;;;;;;21.41;71.46;100789.91;;;;-55
2021/08/12 08:15:50;;;;;;;7.89;3.55;;;;;;;21.44;71.63;100790.45;;;;-53
2021/08/12 08:18:50;;;;;;;4.47;3.68;;;;;;;21.45;71.66;100791.43;;;;-48
2021/08/12 08:21:50;;;;;;;3.95;3.45;;;;;;;21.47;71.71;100789.73;;;;-59
2021/08/12 08:24:50;;;;;;;4.09;3.31;;;;;;;21.48;71.77;100791.34;;;;-56
2021/08/12 08:27:50;;;;;;;5.66;3.35;;;;;;;21.50;71.74;100795.87;;;;-52
2021/08/12 08:30:50;;;;;;;4.57;3.54;;;;;;;21.51;71.60;100792.44;;;;-56
2021/08/12 08:33:50;;;;;;;5.21;3.50;;;;;;;21.52;71.74;100789.76;;;;-53
2021/08/12 08:36:50;;;;;;;4.31;3.59;;;;;;;21.52;71.73;100788.45;;;;-52
2021/08/12 08:39:50;;;;;;;4.69;3.32;;;;;;;21.54;71.62;100792.62;;;;-54
2021/08/12 08:42:50;;;;;;;4.30;3.51;;;;;;;21.54;71.76;100791.48;;;;-51
2021/08/12 08:45:50;;;;;;;4.07;3.57;;;;;;;21.55;71.68;100786.25;;;;-54
2021/08/12 08:48:50;;;;;;;5.57;3.47;;;;;;;21.56;71.85;100789.25;;;;-50
2021/08/12 08:51:50;;;;;;;7.23;3.63;;;;;;;21.57;71.87;100788.38;;;;-54
2021/08/12 08:54:50;;;;;;;4.97;3.57;;;;;;;21.59;71.89;100790.50;;;;-52
2021/08/12 08:57:50;;;;;;;6.76;3.51;;;;;;;21.60;71.87;100792.86;;;;-52
2021/08/12 09:00:50;;;;;;;4.61;3.23;;;;;;;21.61;71.85;100795.72;;;;-54
2021/08/12 09:03:50;;;;;;;4.44;3.42;;;;;;;21.63;71.86;100794.92;;;;-54
2021/08/12 09:06:50;;;;;;;4.33;3.53;;;;;;;21.64;71.82;100786.91;;;;-58
2021/08/12 09:09:50;;;;;;;4.27;3.37;;;;;;;21.65;71.77;100786.69;;;;-50
2021/08/12 09:12:50;;;;;;;4.10;3.25;;;;;;;21.66;71.79;100786.92;;;;-52
2021/08/12 09:15:50;;;;;;;4.43;3.53;;;;;;;21.66;71.80;100783.00;;;;-53
2021/08/12 09:18:50;;;;;;;5.19;3.21;;;;;;;21.68;71.81;100781.22;;;;-51
2021/08/12 09:21:50;;;;;;;4.39;3.15;;;;;;;21.70;71.70;100780.81;;;;-51
2021/08/12 09:24:50;;;;;;;4.37;3.41;;;;;;;21.70;71.68;100777.22;;;;-48
2021/08/12 09:27:50;;;;;;;4.63;3.23;;;;;;;21.71;71.77;100771.70;;;;-57
2021/08/12 09:30:50;;;;;;;4.39;3.15;;;;;;;21.71;71.81;100769.91;;;;-56
2021/08/12 09:33:55;;;;;;;4.53;3.23;;;;;;;21.73;71.73;100766.86;;;;-55
2021/08/12 09:36:50;;;;;;;5.17;3.37;;;;;;;21.73;71.72;100761.91;;;;-57
2021/08/12 09:39:50;;;;;;;4.39;3.14;;;;;;;21.73;71.67;100765.42;;;;-57
2021/08/12 09:42:50;;;;;;;6.30;3.18;;;;;;;21.74;71.77;100757.74;;;;-55
2021/08/12 09:45:50;;;;;;;8.87;3.10;;;;;;;21.74;71.71;100760.75;;;;-55
2021/08/12 09:48:50;;;;;;;3.48;3.18;;;;;;;21.75;71.65;100759.38;;;;-54
2021/08/12 09:51:50;;;;;;;5.54;3.12;;;;;;;21.75;71.45;100759.63;;;;-61
2021/08/12 09:54:50;;;;;;;3.45;3.15;;;;;;;21.74;71.61;100754.39;;;;-50
2021/08/12 09:57:50;;;;;;;8.65;3.33;;;;;;;21.74;71.53;100753.33;;;;-59
2021/08/12 10:00:51;;;;;;;5.97;3.09;;;;;;;21.75;71.55;100750.17;;;;-52
2021/08/12 10:03:51;;;;;;;4.28;2.99;;;;;;;21.76;71.57;100746.48;;;;-52
2021/08/12 10:06:50;;;;;;;4.11;2.99;;;;;;;21.76;71.53;100747.30;;;;-54
2021/08/12 10:09:50;;;;;;;5.87;2.91;;;;;;;21.75;71.66;100747.31;;;;-59
2021/08/12 10:12:50;;;;;;;6.33;3.39;;;;;;;21.76;71.55;100750.56;;;;-59
2021/08/12 10:15:51;;;;;;;7.92;3.13;;;;;;;21.75;71.47;100757.23;;;;-58
2021/08/12 10:18:50;;;;;;;3.84;2.97;;;;;;;21.74;71.59;100755.13;;;;-59
2021/08/12 10:21:50;;;;;;;3.71;3.19;;;;;;;21.74;71.47;100757.58;;;;-51
2021/08/12 10:24:50;;;;;;;4.67;2.93;;;;;;;21.74;71.54;100758.55;;;;-52
2021/08/12 10:27:50;;;;;;;4.31;2.89;;;;;;;21.75;71.50;100757.34;;;;-52
2021/08/12 10:30:50;;;;;;;4.61;2.92;;;;;;;21.76;71.52;100752.44;;;;-56
2021/08/12 10:33:50;;;;;;;4.99;3.12;;;;;;;21.77;71.53;100746.33;;;;-62
2021/08/12 10:36:50;;;;;;;5.13;3.17;;;;;;;21.78;71.51;100740.38;;;;-57
2021/08/12 10:39:50;;;;;;;5.21;3.17;;;;;;;21.79;71.53;100736.88;;;;-54
2021/08/12 10:42:50;;;;;;;3.77;2.95;;;;;;;21.80;71.52;100730.58;;;;-52
2021/08/12 10:45:50;;;;;;;4.02;3.19;;;;;;;21.81;71.49;100736.85;;;;-55
2021/08/12 10:48:50;;;;;;;3.39;3.05;;;;;;;21.82;71.56;100733.28;;;;-58
2021/08/12 10:51:50;;;;;;;4.55;3.00;;;;;;;21.82;71.46;100732.95;;;;-54
2021/08/12 10:54:50;;;;;;;3.99;2.95;;;;;;;21.82;71.18;100730.98;;;;-60
2021/08/12 10:57:50;;;;;;;5.51;2.99;;;;;;;21.82;71.44;100726.67;;;;-51
2021/08/12 11:00:50;;;;;;;3.50;3.02;;;;;;;21.83;71.43;100721.77;;;;-49
2021/08/12 11:03:53;;;;;;;6.23;3.08;;;;;;;21.83;71.60;100717.44;;;;-51
2021/08/12 11:06:51;;;;;;;3.45;2.99;;;;;;;21.82;71.50;100713.69;;;;-51
2021/08/12 11:09:50;;;;;;;6.60;3.08;;;;;;;21.83;71.42;100720.30;;;;-47
2021/08/12 11:12:50;;;;;;;3.78;2.92;;;;;;;21.82;71.33;100710.92;;;;-47
2021/08/12 11:15:50;;;;;;;5.77;3.01;;;;;;;21.82;71.33;100710.52;;;;-58
2021/08/12 11:18:50;;;;;;;3.91;2.91;;;;;;;21.81;71.30;100706.20;;;;-58
2021/08/12 11:21:50;;;;;;;4.32;3.21;;;;;;;21.81;71.19;100704.49;;;;-58
2021/08/12 11:24:50;;;;;;;3.66;2.97;;;;;;;21.81;71.26;100701.77;;;;-58
2021/08/12 11:27:50;;;;;;;4.46;2.88;;;;;;;21.80;71.22;100701.37;;;;-58
2021/08/12 11:30:50;;;;;;;5.43;2.96;;;;;;;21.80;71.26;100700.23;;;;-47
2021/08/12 11:33:50;;;;;;;4.95;2.95;;;;;;;21.80;71.15;100702.43;;;;-47
2021/08/12 11:36:50;;;;;;;4.33;2.77;;;;;;;21.80;71.13;100704.30;;;;-59
2021/08/12 11:39:50;;;;;;;4.33;2.78;;;;;;;21.79;71.13;100703.19;;;;-58
2021/08/12 11:42:50;;;;;;;5.10;2.97;;;;;;;21.79;71.14;100706.99;;;;-58
2021/08/12 11:45:50;;;;;;;3.57;2.85;;;;;;;21.78;71.16;100701.04;;;;-58
2021/08/12 11:48:50;;;;;;;3.33;2.89;;;;;;;21.78;71.17;100703.17;;;;-51
2021/08/12 11:51:50;;;;;;;5.52;2.92;;;;;;;21.79;71.10;100708.24;;;;-51
2021/08/12 11:54:50;;;;;;;4.24;2.88;;;;;;;21.78;71.08;100704.23;;;;-51
2021/08/12 11:57:50;;;;;;;3.97;2.80;;;;;;;21.78;71.01;100699.82;;;;-51
2021/08/12 12:00:50;;;;;;;3.84;2.81;;;;;;;21.78;71.04;100701.46;;;;-47
2021/08/12 12:03:50;;;;;;;5.29;2.93;;;;;;;21.77;71.01;100696.41;;;;-51
2021/08/12 12:06:50;;;;;;;3.25;2.87;;;;;;;21.78;71.00;100693.95;;;;-47
2021/08/12 12:09:50;;;;;;;4.95;2.91;;;;;;;21.77;71.01;100692.08;;;;-58
2021/08/12 12:12:50;;;;;;;4.27;2.84;;;;;;;21.77;70.96;100694.20;;;;-58
2021/08/12 12:15:50;;;;;;;3.63;2.97;;;;;;;21.76;71.00;100687.59;;;;-47
2021/08/12 12:18:50;;;;;;;3.23;2.69;;;;;;;21.76;71.02;100691.33;;;;-47
2021/08/12 12:21:50;;;;;;;5.33;2.87;;;;;;;21.76;70.96;100688.80;;;;-51
2021/08/12 12:24:50;;;;;;;3.54;2.87;;;;;;;21.75;71.00;100687.92;;;;-50
2021/08/12 12:27:50;;;;;;;3.74;2.71;;;;;;;21.75;70.99;100686.78;;;;-51
2021/08/12 12:30:50;;;;;;;2.95;2.69;;;;;;;21.75;70.96;100681.80;;;;-51
2021/08/12 12:33:50;;;;;;;3.37;2.76;;;;;;;21.76;70.94;100688.96;;;;-51
2021/08/12 12:36:50;;;;;;;11.89;3.12;;;;;;;21.75;71.19;100685.23;;;;-54
2021/08/12 12:39:50;;;;;;;22.44;3.44;;;;;;;21.77;71.09;100686.05;;;;-49
2021/08/12 12:42:50;;;;;;;3.89;2.61;;;;;;;21.79;71.17;100691.59;;;;-53
2021/08/12 12:45:50;;;;;;;4.97;2.79;;;;;;;21.81;71.21;100683.19;;;;-49
2021/08/12 12:48:50;;;;;;;5.97;2.99;;;;;;;21.83;71.31;100687.91;;;;-57
2021/08/12 12:51:50;;;;;;;3.94;2.88;;;;;;;21.85;71.34;100685.73;;;;-52
2021/08/12 12:54:55;;;;;;;5.19;2.85;;;;;;;21.87;71.25;100678.22;;;;-53
2021/08/12 12:57:50;;;;;;;4.39;2.69;;;;;;;21.87;71.50;100675.36;;;;-52
2021/08/12 13:00:50;;;;;;;4.33;2.55;;;;;;;21.88;71.34;100672.50;;;;-58
2021/08/12 13:03:50;;;;;;;5.45;2.79;;;;;;;21.88;71.41;100673.31;;;;-58
2021/08/12 13:06:50;;;;;;;8.43;2.96;;;;;;;21.88;71.45;100666.14;;;;-59
2021/08/12 13:09:50;;;;;;;4.68;2.85;;;;;;;21.87;71.41;100668.32;;;;-58
2021/08/12 13:12:50;;;;;;;6.19;2.78;;;;;;;21.88;71.55;100662.62;;;;-53
2021/08/12 13:15:50;;;;;;;5.56;2.64;;;;;;;21.86;71.37;100663.86;;;;-55
2021/08/12 13:18:50;;;;;;;8.33;2.74;;;;;;;21.86;71.31;100663.77;;;;-61
2021/08/12 13:21:50;;;;;;;6.17;2.75;;;;;;;21.86;71.25;100666.38;;;;-61
2021/08/12 13:24:50;;;;;;;6.21;2.86;;;;;;;21.86;71.20;100665.80;;;;-58
2021/08/12 13:27:50;;;;;;;7.57;2.77;;;;;;;21.86;71.15;100665.06;;;;-55
2021/08/12 13:30:50;;;;;;;4.55;2.73;;;;;;;21.86;71.16;100660.75;;;;-54
2021/08/12 13:33:50;;;;;;;4.56;2.60;;;;;;;21.85;71.15;100659.20;;;;-52
2021/08/12 13:36:52;;;;;;;5.77;2.65;;;;;;;21.86;71.23;100660.83;;;;-52
2021/08/12 13:39:50;;;;;;;5.22;2.84;;;;;;;21.86;71.16;100645.41;;;;-54
2021/08/12 13:42:50;;;;;;;5.39;2.61;;;;;;;21.87;71.28;100650.39;;;;-53
2021/08/12 13:45:50;;;;;;;6.35;2.65;;;;;;;21.87;71.26;100651.05;;;;-52
2021/08/12 13:48:50;;;;;;;4.45;2.81;;;;;;;21.87;71.24;100652.98;;;;-52
2021/08/12 13:51:50;;;;;;;4.88;2.69;;;;;;;21.87;71.12;100651.95;;;;-53
2021/08/12 13:54:50;;;;;;;5.65;2.85;;;;;;;21.87;71.35;100650.16;;;;-51
2021/08/12 13:57:52;;;;;;;33.75;3.39;;;;;;;21.88;71.61;100640.59;;;;-53
2021/08/12 14:00:50;;;;;;;6.66;3.00;;;;;;;21.90;71.50;100637.16;;;;-50
2021/08/12 14:03:50;;;;;;;6.43;2.70;;;;;;;21.92;71.52;100634.80;;;;-50
2021/08/12 14:06:50;;;;;;;4.62;2.74;;;;;;;21.92;71.54;100632.52;;;;-50
2021/08/12 14:09:50;;;;;;;4.89;2.63;;;;;;;21.94;71.60;100634.55;;;;-56
2021/08/12 14:12:50;;;;;;;5.60;2.85;;;;;;;21.95;71.65;100635.92;;;;-52
2021/08/12 14:15:50;;;;;;;5.38;2.73;;;;;;;21.96;71.73;100632.83;;;;-51
2021/08/12 14:18:52;;;;;;;4.82;2.63;;;;;;;21.97;71.70;100630.70;;;;-52
2021/08/12 14:21:50;;;;;;;4.36;2.94;;;;;;;21.99;71.67;100633.72;;;;-52
2021/08/12 14:24:52;;;;;;;3.80;2.53;;;;;;;21.99;71.66;100631.67;;;;-52
2021/08/12 14:27:50;;;;;;;7.32;2.99;;;;;;;22.00;71.67;100631.29;;;;-59
2021/08/12 14:30:50;;;;;;;5.43;2.57;;;;;;;22.01;71.50;100633.47;;;;-49
2021/08/12 14:33:50;;;;;;;6.19;2.99;;;;;;;22.01;71.43;100625.40;;;;-51
2021/08/12 14:36:50;;;;;;;8.54;2.98;;;;;;;21.99;71.62;100618.38;;;;-51
2021/08/12 14:39:51;;;;;;;3.91;2.71;;;;;;;21.98;71.59;100618.30;;;;-54
2021/08/12 14:42:50;;;;;;;4.05;2.72;;;;;;;21.99;71.58;100617.63;;;;-55
2021/08/12 14:45:50;;;;;;;6.74;2.70;;;;;;;22.01;71.53;100616.50;;;;-52
2021/08/12 14:48:50;;;;;;;4.31;2.76;;;;;;;22.01;71.51;100614.14;;;;-56
2021/08/12 14:51:50;;;;;;;3.77;2.53;;;;;;;22.00;71.58;100609.01;;;;-50
2021/08/12 14:54:50;;;;;;;5.63;2.81;;;;;;;22.00;71.51;100606.97;;;;-52
2021/08/12 14:57:50;;;;;;;7.69;2.79;;;;;;;21.99;71.45;100608.00;;;;-52
2021/08/12 15:00:50;;;;;;;3.77;2.66;;;;;;;21.98;71.39;100605.41;;;;-51
2021/08/12 15:03:50;;;;;;;5.13;2.83;;;;;;;21.97;71.33;100601.98;;;;-50
2021/08/12 15:06:50;;;;;;;3.75;2.71;;;;;;;21.98;71.48;100599.47;;;;-46
2021/08/12 15:09:50;;;;;;;5.03;2.69;;;;;;;21.98;71.45;100597.50;;;;-55
2021/08/12 15:12:50;;;;;;;4.64;2.74;;;;;;;22.00;71.52;100591.47;;;;-51
2021/08/12 15:15:50;;;;;;;4.55;2.83;;;;;;;22.00;71.54;100588.20;;;;-51
2021/08/12 15:18:50;;;;;;;6.45;2.67;;;;;;;22.00;71.53;100588.59;;;;-53
2021/08/12 15:21:50;;;;;;;3.77;2.51;;;;;;;22.02;71.59;100580.58;;;;-53
2021/08/12 15:24:50;;;;;;;6.45;2.87;;;;;;;22.02;71.65;100579.54;;;;-60
2021/08/12 15:27:50;;;;;;;3.59;2.81;;;;;;;22.04;71.63;100583.19;;;;-60
2021/08/12 15:30:50;;;;;;;5.63;2.75;;;;;;;22.04;71.67;100576.68;;;;-52
2021/08/12 15:33:50;;;;;;;6.27;2.81;;;;;;;22.05;71.60;100575.44;;;;-50
2021/08/12 15:36:50;;;;;;;4.50;2.67;;;;;;;22.04;71.70;100571.86;;;;-51
2021/08/12 15:39:50;;;;;;;3.98;2.59;;;;;;;22.06;71.68;100566.70;;;;-50
2021/08/12 15:42:50;;;;;;;3.74;2.75;;;;;;;22.06;71.64;100562.23;;;;-58
2021/08/12 15:45:50;;;;;;;4.50;2.66;;;;;;;22.07;71.73;100561.65;;;;-58
2021/08/12 15:48:50;;;;;;;4.63;2.77;;;;;;;22.07;71.75;100558.79;;;;-58
2021/08/12 15:51:50;;;;;;;5.22;2.68;;;;;;;22.07;71.68;100565.64;;;;-61
2021/08/12 15:54:50;;;;;;;9.11;2.93;;;;;;;22.07;71.67;100561.23;;;;-59
2021/08/12 15:57:50;;;;;;;8.29;2.79;;;;;;;22.07;71.80;100558.46;;;;-53
2021/08/12 16:00:51;;;;;;;8.33;2.59;;;;;;;22.07;71.72;100559.11;;;;-50
2021/08/12 16:03:50;;;;;;;4.62;2.87;;;;;;;22.08;71.65;100554.80;;;;-52
2021/08/12 16:06:50;;;;;;;6.87;2.95;;;;;;;22.09;71.67;100551.92;;;;-60
2021/08/12 16:09:50;;;;;;;4.01;2.71;;;;;;;22.10;71.62;100555.50;;;;-65
2021/08/12 16:12:50;;;;;;;6.32;2.85;;;;;;;22.10;71.65;100553.00;;;;-56
2021/08/12 16:15:50;;;;;;;5.61;2.90;;;;;;;22.11;71.65;100550.38;;;;-59
2021/08/12 16:18:50;;;;;;;6.87;3.11;;;;;;;22.12;71.60;100546.95;;;;-46
2021/08/12 16:21:50;;;;;;;4.57;2.95;;;;;;;22.13;71.68;100542.77;;;;-48
2021/08/12 16:24:50;;;;;;;6.21;3.05;;;;;;;22.14;71.84;100542.19;;;;-52
2021/08/12 16:27:50;;;;;;;4.00;2.86;;;;;;;22.15;71.93;100545.22;;;;-52
2021/08/12 16:30:50;;;;;;;17.59;3.47;;;;;;;22.17;71.96;100543.98;;;;-53
2021/08/12 16:33:50;;;;;;;9.53;3.10;;;;;;;22.17;71.92;100543.98;;;;-57
2021/08/12 16:36:50;;;;;;;11.38;3.18;;;;;;;22.19;71.94;100542.92;;;;-52
2021/08/12 16:39:50;;;;;;;11.10;3.21;;;;;;;22.18;71.93;100534.36;;;;-56